Time;durP1;ratioP1;P1;durP2;ratioP2;P2;SDS_P1;SDS_P2;PMS_P1;PMS_P2;Temp;Humidity;BMP_temperature;BMP_pressure;BME280_temperature;BME280_humidity;BME280_pressure;Samples;Min_cycle;Max_cycle;Signal;HPM_P1;HPM_P2
2022/11/11 00:01:10;;;;;;;14.47;12.33;;;5.10;99.90;;;4.77;93.89;99436.19;4987531;28;20456;-74
2022/11/11 00:03:39;;;;;;;17.67;14.70;;;5.10;99.90;;;4.63;94.04;99393.81;4982548;28;20860;-72
2022/11/11 00:06:10;;;;;;;17.77;14.00;;;5.10;99.90;;;4.92;93.08;99444.63;4980311;28;20507;-72
2022/11/11 00:08:37;;;;;;;19.17;14.93;;;5.00;99.90;;;4.95;92.95;99451.53;4972823;28;20498;-72
2022/11/11 00:11:07;;;;;;;17.67;13.20;;;5.00;99.90;;;4.97;92.67;99445.03;4978762;28;21241;-72
2022/11/11 00:13:37;;;;;;;17.43;13.00;;;5.00;99.90;;;4.95;92.20;99449.69;4979130;28;20464;-73
2022/11/11 00:16:06;;;;;;;17.33;13.90;;;4.90;99.90;;;4.90;93.28;99443.94;4976171;28;20886;-73
2022/11/11 00:26:52;;;;;;;20.57;13.80;;;5.00;99.90;;;4.77;94.68;99446.06;4966437;28;20451;-72
2022/11/11 00:29:20;;;;;;;17.80;14.23;;;5.00;99.90;;;4.80;94.60;99427.88;4959291;28;20451;-72
2022/11/11 00:34:32;;;;;;;16.60;14.00;;;4.90;99.90;;;4.63;94.79;99428.63;4978728;28;20464;-72
2022/11/11 00:37:01;;;;;;;20.00;14.47;;;4.90;99.90;;;4.64;94.55;99411.56;4985269;28;20487;-73
2022/11/11 00:39:28;;;;;;;15.07;12.60;;;4.90;99.90;;;4.67;94.72;99416.63;4965614;28;20503;-72
2022/11/11 00:41:55;;;;;;;20.10;14.30;;;4.90;99.90;;;4.66;94.66;99420.28;4967094;28;20448;-72
2022/11/11 00:44:23;;;;;;;16.43;13.43;;;4.80;99.90;;;4.68;94.03;99421.81;4964688;28;20448;-72
2022/11/11 00:52:21;;;;;;;17.00;12.20;;;4.80;99.90;;;4.53;95.12;99426.78;4985718;28;20928;-71
2022/11/11 00:54:49;;;;;;;16.83;14.03;;;4.80;99.90;;;4.19;93.56;99351.44;4980058;28;20477;-71
2022/11/11 00:57:16;;;;;;;16.10;13.33;;;4.80;99.90;;;4.68;93.17;99431.72;4981021;28;20474;-73
2022/11/11 00:59:43;;;;;;;16.60;12.63;;;4.80;99.90;;;4.69;92.16;99438.75;4964682;28;20471;-71
2022/11/11 01:02:10;;;;;;;14.77;13.23;;;4.70;99.90;;;4.62;92.10;99429.56;4985274;28;20458;-71
2022/11/11 01:04:38;;;;;;;16.57;13.30;;;4.70;99.90;;;4.57;92.49;99431.84;4966365;28;20475;-71
2022/11/11 01:07:05;;;;;;;15.60;12.57;;;4.70;99.90;;;4.34;92.50;99422.28;4984363;28;20470;-71
2022/11/11 01:09:35;;;;;;;20.33;12.07;;;4.70;99.90;;;4.49;93.08;99456.66;4985974;28;20515;-72
2022/11/11 01:12:02;;;;;;;13.17;11.73;;;4.50;99.90;;;4.39;92.14;99443.28;4984926;28;20452;-72
2022/11/11 01:14:31;;;;;;;13.40;12.00;;;4.50;99.90;;;4.21;92.97;99430.59;4988292;28;20462;-71
2022/11/11 01:16:58;;;;;;;17.83;12.87;;;4.40;99.90;;;4.46;92.24;99464.97;4991606;28;20455;-71
2022/11/11 01:19:25;;;;;;;15.17;11.90;;;4.40;99.90;;;4.48;92.05;99460.31;4991606;28;20451;-72
2022/11/11 01:21:52;;;;;;;14.70;12.07;;;4.40;99.90;;;4.48;91.45;99455.81;4984945;28;20514;-71
2022/11/11 01:24:19;;;;;;;12.93;11.23;;;4.40;99.90;;;4.48;91.39;99455.81;4982338;28;20460;-73
2022/11/11 01:26:48;;;;;;;19.23;11.90;;;4.50;99.90;;;4.53;91.37;99463.41;4976398;28;20929;-71
2022/11/11 01:29:17;;;;;;;19.87;12.83;;;4.50;99.90;;;4.42;91.72;99445.66;4990434;28;20454;-71
2022/11/11 01:31:44;;;;;;;16.80;13.30;;;4.50;99.90;;;4.51;91.16;99462.69;4989721;28;20461;-71
2022/11/11 01:34:12;;;;;;;16.33;12.53;;;4.50;99.90;;;4.47;90.51;99459.44;4990725;28;20510;-73
2022/11/11 01:36:39;;;;;;;17.10;13.17;;;4.50;99.90;;;4.37;91.38;99454.09;4981952;28;20966;-72
2022/11/11 01:39:06;;;;;;;15.47;12.00;;;4.50;99.90;;;4.41;91.61;99460.03;4989667;28;20478;-72
2022/11/11 01:41:36;;;;;;;18.23;12.67;;;4.50;99.90;;;4.31;91.75;99459.16;4973047;28;20619;-73
2022/11/11 01:44:41;;;;;;;17.63;13.43;;;4.40;99.90;;;4.25;92.60;99461.41;4985802;28;20461;-73
2022/11/11 01:47:08;;;;;;;16.20;12.67;;;4.40;99.90;;;4.28;92.41;99452.28;4983547;28;20497;-73
2022/11/11 01:49:42;;;;;;;14.50;13.00;;;4.40;99.90;;;4.33;92.40;99459.91;4952395;28;20463;-72
2022/11/11 01:52:14;;;;;;;13.30;11.83;;;4.40;99.90;;;4.28;91.62;99468.34;4986815;28;20460;-71
2022/11/11 01:54:47;;;;;;;19.13;11.80;;;4.40;99.90;;;4.25;92.14;99469.44;4989526;28;20455;-73
2022/11/11 01:57:20;;;;;;;13.93;11.60;;;4.40;99.90;;;4.23;92.56;99468.75;4972512;28;20480;-72
2022/11/11 01:59:59;;;;;;;18.40;12.70;;;4.40;99.90;;;4.23;92.59;99474.09;4970102;28;20506;-72
2022/11/11 02:02:34;;;;;;;14.43;12.40;;;4.40;99.90;;;4.25;91.97;99469.44;4982286;28;20471;-72
2022/11/11 02:07:49;;;;;;;14.50;11.63;;;4.20;99.90;;;4.01;92.61;99460.94;4966112;28;21349;-72
2022/11/11 02:10:19;;;;;;;13.90;12.13;;;4.10;99.90;;;4.06;92.70;99458.72;4990154;28;20455;-71
2022/11/11 02:15:33;;;;;;;17.60;11.80;;;4.10;99.90;;;4.14;92.23;99469.56;4968090;28;20459;-73
2022/11/11 02:18:00;;;;;;;17.03;12.03;;;4.10;99.90;;;4.12;92.31;99466.19;4982428;28;20477;-72
2022/11/11 02:20:32;;;;;;;15.20;12.37;;;4.10;99.90;;;4.09;92.57;99472.69;4955289;28;20968;-72
2022/11/11 02:23:06;;;;;;;12.30;10.97;;;4.10;99.90;;;4.08;91.59;99470.13;4986767;28;20443;-74
2022/11/11 02:25:39;;;;;;;13.37;11.60;;;4.10;99.90;;;4.08;91.43;99467.47;4968288;28;20463;-72
2022/11/11 02:28:07;;;;;;;17.80;11.67;;;4.10;99.90;;;4.06;92.24;99474.78;4967423;28;20462;-73
2022/11/11 02:30:35;;;;;;;14.43;10.83;;;4.10;99.90;;;4.02;92.40;99465.31;4985860;28;20479;-73
2022/11/11 02:33:02;;;;;;;12.73;11.13;;;4.10;99.90;;;3.88;93.01;99458.53;4981203;28;20468;-71
2022/11/11 02:35:34;;;;;;;13.07;10.80;;;4.10;99.90;;;3.99;93.24;99481.66;4969658;28;21002;-72
2022/11/11 02:38:06;;;;;;;14.27;12.03;;;4.20;99.90;;;3.91;92.09;99456.44;4970271;28;20471;-73
2022/11/11 02:41:55;;;;;;;14.60;12.10;;;4.10;99.90;;;3.89;93.48;99461.09;4983541;28;20787;-71
2022/11/11 02:43:25;;;;;;;16.00;10.80;;;4.00;99.90;;;3.88;93.58;99459.41;4969984;28;20536;-72
2022/11/11 02:45:53;;;;;;;15.20;11.40;;;4.00;99.90;;;3.87;92.83;99462.19;4968259;28;20456;-72
2022/11/11 02:48:20;;;;;;;13.83;11.90;;;4.00;99.90;;;3.79;93.06;99460.22;4981778;28;20472;-71
2022/11/11 02:50:47;;;;;;;16.70;12.47;;;3.90;99.90;;;3.76;93.46;99460.50;4981258;28;21033;-73
2022/11/11 02:53:15;;;;;;;19.43;12.03;;;3.80;99.90;;;3.71;93.40;99468.03;4983681;28;21009;-72
2022/11/11 02:55:43;;;;;;;14.50;11.37;;;3.80;99.90;;;3.84;93.17;99463.31;4979538;28;20511;-72
2022/11/11 02:58:11;;;;;;;13.53;11.10;;;3.90;99.90;;;3.90;92.44;99470.81;4968990;28;20506;-71
2022/11/11 03:00:39;;;;;;;14.13;11.67;;;3.90;99.90;;;3.84;91.64;99476.69;4984848;28;21014;-74
2022/11/11 03:03:06;;;;;;;12.43;11.13;;;3.90;99.90;;;3.40;92.44;99419.00;4967023;28;20549;-72
2022/11/11 03:05:33;;;;;;;12.60;11.27;;;3.80;99.90;;;3.74;92.65;99484.66;4967160;28;20463;-73
2022/11/11 03:08:00;;;;;;;13.60;10.77;;;3.80;99.90;;;3.77;92.63;99470.19;4965452;28;20456;-71
2022/11/11 03:10:28;;;;;;;12.93;10.53;;;3.80;99.90;;;3.66;92.53;99461.28;4983222;28;20447;-71
2022/11/11 03:12:57;;;;;;;12.90;11.37;;;3.70;99.90;;;3.58;93.27;99462.94;4980391;28;20467;-70
2022/11/11 03:15:26;;;;;;;15.13;11.10;;;3.60;99.90;;;3.60;94.15;99472.53;4984863;28;20465;-71
2022/11/11 03:17:52;;;;;;;17.90;12.23;;;3.70;99.90;;;3.61;93.30;99476.91;4987040;28;20873;-72
2022/11/11 03:23:07;;;;;;;17.60;12.20;;;3.70;99.90;;;3.53;93.46;99487.41;4981982;28;20505;-71
2022/11/11 03:25:39;;;;;;;12.10;10.43;;;3.80;99.90;;;3.60;92.78;99493.91;4983762;28;20459;-71
2022/11/11 03:28:11;;;;;;;12.50;10.70;;;3.70;99.90;;;3.70;91.89;99493.94;4974997;28;20459;-72
2022/11/11 03:30:41;;;;;;;12.43;10.37;;;3.70;99.90;;;3.61;92.55;99498.28;4985171;28;21019;-71
2022/11/11 03:33:08;;;;;;;12.37;10.50;;;3.70;99.90;;;3.62;92.50;99497.28;4975180;28;20452;-71
2022/11/11 03:35:36;;;;;;;12.10;10.23;;;3.70;99.90;;;3.66;91.74;99497.88;4985168;28;20528;-72
2022/11/11 03:38:22;;;;;;;12.60;9.13;;;3.70;99.90;;;3.60;91.82;99493.91;4970352;28;20472;-72
2022/11/11 03:40:52;;;;;;;10.97;9.90;;;3.70;99.90;;;3.47;93.11;99493.28;4970266;28;20879;-72
2022/11/11 03:43:22;;;;;;;13.13;9.97;;;3.70;99.90;;;3.47;93.13;99479.94;4966638;28;20460;-71
2022/11/11 03:45:50;;;;;;;12.23;10.23;;;3.60;99.90;;;3.32;94.57;99485.63;4967993;28;20468;-72
2022/11/11 03:48:18;;;;;;;14.23;10.63;;;3.60;99.90;;;3.26;94.71;99491.47;4988523;28;20460;-72
2022/11/11 03:50:47;;;;;;;13.40;10.63;;;3.60;99.90;;;3.30;94.80;99487.59;4985427;28;20456;-71
2022/11/11 03:53:14;;;;;;;15.20;10.93;;;3.60;99.90;;;3.16;95.31;99472.72;4981934;28;20465;-71
2022/11/11 03:55:42;;;;;;;12.93;10.40;;;3.60;99.90;;;3.33;94.48;99481.09;4982956;28;20936;-71
2022/11/11 03:58:09;;;;;;;16.87;10.60;;;3.60;99.90;;;3.32;94.33;99492.78;4986933;28;20529;-70
2022/11/11 04:00:38;;;;;;;13.53;10.20;;;3.60;99.90;;;3.40;93.92;99490.31;4983135;28;20463;-70
2022/11/11 04:11:28;;;;;;;13.97;9.93;;;3.50;99.90;;;3.24;94.54;99482.75;4965603;28;20532;-72
2022/11/11 04:16:45;;;;;;;15.43;11.57;;;3.50;99.90;;;3.22;95.62;99484.72;4966523;28;20475;-72
2022/11/11 04:21:57;;;;;;;14.77;11.70;;;3.50;99.90;;;3.22;94.34;99474.88;4968507;28;20536;-70
2022/11/11 04:27:11;;;;;;;14.23;10.80;;;3.60;99.90;;;3.44;93.94;99498.91;4966759;28;20479;-71
2022/11/11 04:29:38;;;;;;;15.40;11.57;;;3.60;99.90;;;3.43;93.83;99495.38;4964331;28;20956;-71
2022/11/11 04:34:56;;;;;;;13.93;11.60;;;3.70;99.90;;;3.45;93.20;99495.25;4980564;28;20458;-71
2022/11/11 04:37:25;;;;;;;18.77;11.63;;;3.70;99.90;;;3.41;93.06;99497.34;4965281;28;20562;-72
2022/11/11 04:42:38;;;;;;;12.17;10.20;;;3.60;99.90;;;3.42;93.03;99516.91;4966574;28;20459;-72
2022/11/11 04:47:59;;;;;;;13.60;10.03;;;3.50;99.90;;;3.31;92.45;99521.34;4969347;28;20975;-72
2022/11/11 04:50:29;;;;;;;12.00;10.10;;;3.40;99.90;;;3.36;91.78;99521.78;4990216;28;20466;-73
2022/11/11 04:52:56;;;;;;;18.93;11.30;;;3.40;99.90;;;3.33;92.63;99524.72;4987853;28;20451;-72
2022/11/11 04:58:10;;;;;;;15.67;10.87;;;3.50;99.90;;;3.34;92.36;99526.41;4989322;28;20548;-73
2022/11/11 05:00:38;;;;;;;13.20;11.00;;;3.50;99.90;;;3.26;92.75;99518.19;4967655;28;20452;-72
2022/11/11 05:03:14;;;;;;;15.50;10.50;;;3.40;99.90;;;3.23;93.33;99529.16;4973495;28;20446;-72
2022/11/11 05:11:14;;;;;;;11.67;9.90;;;3.30;99.90;;;3.06;94.13;99522.59;4986500;28;20458;-72
2022/11/11 05:22:21;;;;;;;11.43;10.20;;;3.30;99.90;;;2.87;92.62;99485.91;4946200;28;20469;-72
2022/11/11 05:27:33;;;;;;;11.87;9.50;;;3.30;99.90;;;3.32;91.90;99557.75;4955642;28;20454;-70
2022/11/11 05:30:01;;;;;;;14.27;9.90;;;3.30;99.90;;;2.89;91.48;99483.94;4985314;28;20526;-72
2022/11/11 05:32:28;;;;;;;11.10;9.83;;;3.30;99.90;;;3.16;91.81;99536.00;4984413;28;20467;-72
2022/11/11 05:34:57;;;;;;;12.80;10.00;;;3.30;99.90;;;3.06;93.39;99544.78;4983213;28;20469;-72
2022/11/11 05:37:24;;;;;;;11.70;9.87;;;3.30;99.90;;;3.06;94.23;99555.47;4961446;28;20515;-71
2022/11/11 05:39:51;;;;;;;12.30;8.83;;;3.30;99.90;;;3.10;93.99;99551.56;4964484;28;20482;-69
2022/11/11 05:42:19;;;;;;;10.83;9.77;;;3.30;99.90;;;3.17;93.95;99553.72;4986816;28;20467;-69
2022/11/11 05:44:47;;;;;;;13.30;9.63;;;3.40;99.90;;;3.09;93.89;99554.38;4982978;28;20505;-70
2022/11/11 05:47:15;;;;;;;14.20;9.93;;;3.30;99.90;;;3.16;93.29;99565.38;4982930;28;20462;-70
2022/11/11 05:49:42;;;;;;;11.07;9.90;;;3.30;99.90;;;3.11;93.17;99565.78;4985441;28;20455;-68
2022/11/11 05:52:12;;;;;;;15.00;10.80;;;3.30;99.90;;;3.15;92.78;99569.03;4981033;28;20464;-68
2022/11/11 05:54:39;;;;;;;10.13;9.13;;;3.40;99.90;;;3.26;92.87;99587.66;4988335;28;20464;-69
2022/11/11 05:57:06;;;;;;;11.60;9.30;;;3.30;99.90;;;3.22;92.52;99581.75;4989685;28;21016;-69
2022/11/11 05:59:34;;;;;;;14.87;10.37;;;3.30;99.90;;;3.27;92.69;99594.72;4978426;28;21123;-70
2022/11/11 06:02:01;;;;;;;13.13;10.90;;;3.30;99.90;;;3.29;92.28;99598.09;4985148;28;20827;-69
2022/11/11 06:04:29;;;;;;;11.50;9.97;;;3.40;99.90;;;3.30;91.56;99594.44;4985818;28;20460;-68
2022/11/11 06:06:56;;;;;;;9.80;8.80;;;3.40;99.90;;;3.22;92.82;99586.22;4978492;28;20568;-70
2022/11/11 06:09:25;;;;;;;11.80;9.43;;;3.30;99.90;;;3.08;93.62;99596.25;4979922;28;20587;-69
2022/11/11 06:11:52;;;;;;;10.97;8.73;;;3.40;99.90;;;3.14;93.94;99591.38;4982674;28;20479;-69
2022/11/11 06:14:19;;;;;;;10.67;8.80;;;3.40;99.90;;;3.10;93.78;99582.78;4970301;28;20846;-68
2022/11/11 06:16:47;;;;;;;10.90;9.80;;;3.40;99.90;;;3.24;93.54;99595.81;4980396;28;20458;-67
2022/11/11 06:19:14;;;;;;;11.80;9.33;;;3.40;99.90;;;3.21;93.51;99592.53;4982884;28;20483;-68
2022/11/11 06:22:00;;;;;;;10.73;9.07;;;3.50;99.90;;;3.22;93.62;99596.91;4975835;28;20467;-66
2022/11/11 06:24:29;;;;;;;15.93;9.47;;;3.50;99.90;;;3.07;93.97;99599.88;4977002;28;20460;-71
2022/11/11 06:26:55;;;;;;;11.57;9.60;;;3.50;99.90;;;3.17;93.55;99609.81;4964235;28;20503;-69
2022/11/11 06:29:22;;;;;;;11.17;10.00;;;3.40;99.90;;;3.22;93.16;99605.78;4969586;28;20553;-68
2022/11/11 06:31:55;;;;;;;11.30;9.70;;;3.50;99.90;;;3.13;93.59;99595.84;4978151;28;20540;-69
2022/11/11 06:34:23;;;;;;;12.40;9.67;;;3.50;99.90;;;3.22;92.95;99595.09;4984659;28;20460;-70
2022/11/11 06:36:50;;;;;;;13.27;10.20;;;3.50;99.90;;;3.19;92.57;99602.50;4969396;28;20459;-77
2022/11/11 06:39:17;;;;;;;14.67;10.10;;;3.50;99.90;;;3.19;93.24;99602.50;4987369;28;20604;-68
2022/11/11 06:41:46;;;;;;;13.20;10.07;;;3.50;99.90;;;3.36;93.20;99596.59;4979639;28;20466;-68
2022/11/11 06:44:13;;;;;;;12.80;9.50;;;3.60;99.90;;;3.25;92.65;99591.31;4975697;28;20488;-69
2022/11/11 06:46:40;;;;;;;11.27;9.90;;;3.50;99.90;;;3.10;93.47;99591.63;4960488;28;20472;-68
2022/11/11 06:49:07;;;;;;;12.27;10.50;;;3.50;99.90;;;3.29;93.59;99603.44;4984874;28;20486;-69
2022/11/11 06:51:34;;;;;;;15.90;10.43;;;3.50;99.90;;;3.30;93.08;99602.47;4979619;28;21006;-67
2022/11/11 06:54:02;;;;;;;12.93;10.60;;;3.60;99.90;;;3.32;93.25;99603.19;4980362;28;21415;-67
2022/11/11 06:56:29;;;;;;;13.60;10.10;;;3.60;99.90;;;3.36;93.16;99599.25;4982221;28;20939;-67
2022/11/11 06:58:57;;;;;;;12.47;9.83;;;3.60;99.90;;;3.29;93.08;99598.09;4978432;28;20486;-68
2022/11/11 07:01:24;;;;;;;11.90;9.70;;;3.60;99.90;;;3.35;92.68;99586.88;4981626;28;21252;-66
2022/11/11 07:03:51;;;;;;;15.20;10.10;;;3.60;99.90;;;3.30;93.06;99589.09;4975421;28;20458;-69
2022/11/11 07:06:19;;;;;;;11.93;10.37;;;3.60;99.90;;;3.48;92.68;99591.19;4969448;28;20898;-69
2022/11/11 07:08:46;;;;;;;14.80;10.37;;;3.70;99.90;;;3.53;92.11;99583.63;4980568;28;20459;-67
2022/11/11 07:11:14;;;;;;;13.07;11.07;;;3.70;99.90;;;3.53;92.09;99594.31;4976378;28;20473;-67
2022/11/11 07:13:41;;;;;;;16.13;11.13;;;3.70;99.90;;;3.53;92.05;99572.91;4985071;28;20622;-68
2022/11/11 07:16:10;;;;;;;23.13;13.37;;;3.80;99.90;;;3.58;92.06;99599.25;4980779;28;20860;-69
2022/11/11 07:18:38;;;;;;;14.50;10.57;;;3.90;99.90;;;3.64;92.45;99598.72;4968119;28;20468;-69
2022/11/11 07:21:05;;;;;;;11.80;10.60;;;3.90;99.90;;;3.76;91.83;99599.50;4977055;28;20521;-67
2022/11/11 07:23:32;;;;;;;15.60;11.67;;;3.90;99.90;;;3.87;91.22;99610.13;4969468;28;20467;-68
2022/11/11 07:26:00;;;;;;;12.87;10.30;;;4.00;99.90;;;3.90;91.71;99606.31;4982252;28;21418;-69
2022/11/11 07:28:27;;;;;;;10.90;9.80;;;4.10;99.90;;;3.83;92.14;99606.00;4978848;28;20543;-68
2022/11/11 07:30:55;;;;;;;11.83;10.57;;;4.10;99.90;;;3.92;92.13;99609.72;4964277;28;20452;-72
2022/11/11 07:33:24;;;;;;;17.50;11.40;;;4.10;99.90;;;4.10;91.50;99621.50;4966740;28;20546;-74
2022/11/11 07:35:51;;;;;;;16.67;10.57;;;4.20;99.90;;;4.19;91.75;99610.94;4959037;28;20471;-73
2022/11/11 07:38:21;;;;;;;12.13;10.77;;;4.20;99.90;;;4.06;92.32;99616.53;4980742;28;20587;-73
2022/11/11 07:40:49;;;;;;;13.50;10.63;;;4.30;99.90;;;4.18;91.40;99619.97;4981753;28;20558;-73
2022/11/11 07:43:16;;;;;;;14.20;10.53;;;4.40;99.90;;;4.30;93.02;99588.59;4962024;28;20459;-78
2022/11/11 07:45:43;;;;;;;11.83;10.40;;;4.60;99.90;;;4.69;91.94;99612.78;4978088;28;20476;-69
2022/11/11 07:48:10;;;;;;;12.73;10.60;;;4.80;99.90;;;4.87;91.20;99621.00;4981317;28;20526;-70
2022/11/11 07:50:39;;;;;;;17.77;10.70;;;4.90;99.90;;;4.88;90.35;99609.28;4976048;28;20463;-69
2022/11/11 07:53:06;;;;;;;10.57;9.57;;;5.10;99.90;;;4.95;89.98;99620.31;4976477;28;21004;-69
2022/11/11 07:55:33;;;;;;;15.93;10.40;;;5.20;99.90;;;5.09;89.30;99609.16;4982656;28;20452;-69
2022/11/11 07:58:01;;;;;;;14.90;10.67;;;5.20;99.90;;;5.17;89.28;99615.66;4979599;28;20512;-69
2022/11/11 08:00:28;;;;;;;13.43;10.83;;;5.30;99.90;;;5.22;88.88;99624.09;4981962;28;20569;-69
2022/11/11 08:02:55;;;;;;;13.53;11.00;;;5.40;99.90;;;5.38;88.78;99618.19;4964305;28;20444;-69
2022/11/11 08:05:23;;;;;;;12.97;10.53;;;5.50;99.90;;;5.54;88.16;99631.00;4979246;28;20471;-70
2022/11/11 08:07:51;;;;;;;13.40;12.00;;;5.60;99.90;;;5.63;88.88;99618.56;4962664;28;20486;-70
2022/11/11 08:10:18;;;;;;;16.27;10.50;;;5.70;99.90;;;5.77;88.75;99612.75;4959070;28;21383;-82
2022/11/11 08:15:31;;;;;;;16.17;10.67;;;6.00;99.90;;;6.07;87.83;99634.16;4979788;28;20542;-66
2022/11/11 08:17:58;;;;;;;18.13;12.27;;;6.10;99.90;;;6.32;87.12;99631.78;4978495;28;20515;-67
2022/11/11 08:20:25;;;;;;;13.10;11.80;;;6.30;99.90;;;6.50;87.27;99635.38;4975534;28;20468;-65
2022/11/11 08:22:55;;;;;;;12.30;10.80;;;6.50;99.90;;;6.63;86.28;99634.19;4987372;28;20522;-67
2022/11/11 08:25:23;;;;;;;14.87;11.67;;;6.60;99.90;;;6.75;86.81;99638.34;4985607;28;20487;-68
2022/11/11 08:27:58;;;;;;;14.87;11.20;;;6.70;99.60;;;6.60;85.71;99634.50;4976341;28;20558;-67
2022/11/11 08:30:25;;;;;;;10.40;9.40;;;6.70;97.40;;;6.92;86.41;99623.22;4984146;28;20496;-68
2022/11/11 08:32:57;;;;;;;14.17;10.97;;;6.90;99.90;;;6.99;85.73;99614.59;4983775;28;20960;-67
2022/11/11 08:35:25;;;;;;;13.07;11.20;;;7.00;98.50;;;7.03;85.92;99614.09;4977519;28;20866;-65
2022/11/11 08:37:55;;;;;;;12.93;11.33;;;7.10;96.10;;;6.98;85.21;99562.66;4960503;28;20471;-69
2022/11/11 08:40:22;;;;;;;11.97;10.77;;;7.30;96.40;;;7.28;84.77;99614.34;4980054;28;20528;-67
2022/11/11 08:42:49;;;;;;;14.80;10.73;;;7.30;96.00;;;7.36;83.02;99608.19;4988030;28;21016;-67
2022/11/11 08:45:17;;;;;;;13.60;11.00;;;7.50;94.30;;;7.43;83.54;99603.03;4979959;28;21027;-67
2022/11/11 08:47:45;;;;;;;11.97;10.50;;;7.60;93.70;;;7.60;83.48;99609.38;4983917;28;20464;-66
2022/11/11 08:50:12;;;;;;;12.57;11.20;;;7.70;93.60;;;7.71;83.44;99617.16;4959465;28;20520;-67
2022/11/11 08:52:46;;;;;;;14.27;11.20;;;7.80;94.00;;;7.78;82.33;99612.00;4987325;28;20445;-66
2022/11/11 08:55:17;;;;;;;16.13;11.10;;;7.90;93.30;;;7.86;81.23;99609.38;4986966;28;20833;-68
2022/11/11 08:57:44;;;;;;;16.77;11.70;;;8.00;92.10;;;8.13;82.99;99620.97;4963937;28;20464;-67
2022/11/11 09:00:13;;;;;;;16.70;11.70;;;8.20;93.00;;;8.26;80.83;99622.34;4960589;28;20759;-69
2022/11/11 09:02:40;;;;;;;12.50;11.20;;;8.40;91.60;;;8.43;81.11;99625.97;4977875;28;20862;-67
2022/11/11 09:05:08;;;;;;;11.70;10.50;;;8.50;91.70;;;8.21;80.80;99622.88;4966536;28;20520;-67
2022/11/11 09:07:35;;;;;;;13.40;11.90;;;8.40;91.00;;;8.13;81.58;99620.97;4973082;28;20853;-68
2022/11/11 09:10:03;;;;;;;20.23;11.20;;;8.40;91.10;;;8.23;81.32;99627.06;4984531;28;20462;-67
2022/11/11 09:12:31;;;;;;;12.27;10.97;;;8.50;91.40;;;8.21;81.03;99628.25;4968230;28;20463;-67
2022/11/11 09:15:00;;;;;;;17.13;11.97;;;8.40;91.40;;;9.00;81.72;99630.72;4978363;28;20776;-67
2022/11/11 09:17:27;;;;;;;17.50;10.97;;;8.80;93.20;;;9.02;78.65;99639.50;4975750;28;20465;-69
2022/11/11 09:19:54;;;;;;;12.20;10.70;;;9.10;90.40;;;9.00;78.93;99633.41;4979797;28;20487;-67
2022/11/11 09:22:21;;;;;;;14.80;10.70;;;9.10;90.40;;;9.34;78.82;99629.78;4969818;28;20515;-68
2022/11/11 09:24:48;;;;;;;12.57;10.30;;;9.30;91.00;;;9.76;78.69;99633.28;4982907;28;20462;-68
2022/11/11 09:27:16;;;;;;;13.63;10.37;;;9.50;90.80;;;9.59;76.98;99637.84;4979504;28;20600;-68
2022/11/11 09:29:44;;;;;;;10.50;9.40;;;9.60;89.30;;;9.75;77.86;99637.00;4963986;28;20824;-68
2022/11/11 09:32:11;;;;;;;14.33;10.23;;;9.70;90.00;;;9.88;77.58;99644.56;4978439;28;20456;-68
2022/11/11 09:34:38;;;;;;;16.67;10.60;;;9.80;90.10;;;10.39;76.23;99638.03;4968792;28;20473;-67
2022/11/11 09:37:06;;;;;;;11.50;10.30;;;10.20;88.80;;;10.37;77.32;99640.06;4984682;28;21002;-68
2022/11/11 09:39:33;;;;;;;13.73;10.47;;;10.20;88.20;;;10.49;75.28;99641.38;4968625;28;20522;-68
2022/11/11 09:42:12;;;;;;;13.77;10.53;;;10.40;87.50;;;10.08;75.65;99652.28;4987575;28;20785;-67
2022/11/11 09:45:06;;;;;;;13.47;10.90;;;10.30;86.30;;;9.98;76.67;99654.34;4982928;28;20559;-67
2022/11/11 09:47:42;;;;;;;13.83;11.47;;;10.00;87.20;;;10.11;75.51;99635.75;4972082;28;20459;-69
2022/11/11 09:50:13;;;;;;;15.33;10.87;;;10.10;87.10;;;9.94;77.32;99655.72;4969181;28;20453;-68
2022/11/11 09:52:44;;;;;;;18.97;11.83;;;10.10;87.30;;;10.06;77.45;99638.13;4984402;28;20451;-66
2022/11/11 09:55:18;;;;;;;13.90;11.30;;;10.20;87.60;;;10.16;76.88;99652.28;4987045;28;20584;-68
2022/11/11 09:57:51;;;;;;;12.40;11.13;;;10.20;87.50;;;10.18;76.62;99644.84;4988604;28;20502;-67
2022/11/11 10:00:23;;;;;;;11.93;10.63;;;10.20;87.60;;;10.58;75.86;99654.88;4968405;28;20488;-67
2022/11/11 10:02:53;;;;;;;13.67;11.00;;;10.40;87.50;;;10.81;74.92;99656.78;4981409;28;20464;-68
2022/11/11 10:05:25;;;;;;;15.73;11.20;;;10.60;87.00;;;10.98;74.94;99639.44;4968451;28;20470;-66
2022/11/11 10:07:59;;;;;;;17.47;11.40;;;10.80;87.50;;;11.18;73.89;99655.25;4991798;28;20462;-67
2022/11/11 10:10:38;;;;;;;14.90;11.43;;;11.00;86.30;;;11.19;74.75;99646.94;4973409;28;20463;-67
2022/11/11 10:13:15;;;;;;;12.93;11.57;;;11.10;86.50;;;11.32;74.05;99635.53;4962749;28;20453;-67
2022/11/11 10:15:52;;;;;;;11.80;10.57;;;11.30;86.50;;;11.13;73.99;99595.41;4968769;28;20845;-67
2022/11/11 10:18:42;;;;;;;10.63;9.53;;;11.40;86.00;;;11.74;72.19;99637.88;4981751;28;20515;-67
2022/11/11 10:21:16;;;;;;;10.27;9.17;;;11.60;85.60;;;11.96;72.24;99644.25;4977354;28;20473;-67
2022/11/11 10:23:48;;;;;;;11.50;10.30;;;11.70;85.50;;;12.16;71.46;99644.59;4983085;28;20460;-67
2022/11/11 10:26:20;;;;;;;12.80;11.37;;;11.90;85.20;;;12.05;71.86;99645.03;4966437;28;21006;-66
2022/11/11 10:28:51;;;;;;;11.03;9.40;;;11.90;85.00;;;12.44;71.06;99637.69;4983457;28;20447;-66
2022/11/11 10:31:23;;;;;;;9.73;8.80;;;12.10;85.40;;;12.42;71.01;99637.88;4982160;28;20464;-67
2022/11/11 10:33:56;;;;;;;10.83;9.83;;;12.20;85.00;;;12.62;70.29;99626.44;4981655;28;20461;-66
2022/11/11 10:36:25;;;;;;;10.40;9.30;;;12.40;84.80;;;12.49;70.85;99631.69;4967024;28;20503;-67
2022/11/11 10:38:58;;;;;;;11.40;9.97;;;12.30;84.50;;;12.46;70.48;99622.09;4980222;28;20466;-67
2022/11/11 10:41:32;;;;;;;9.73;8.63;;;12.40;84.30;;;12.31;70.17;99570.59;4983050;28;20482;-68
2022/11/11 10:44:00;;;;;;;11.23;9.43;;;12.40;84.30;;;12.63;69.83;99621.88;4978544;28;20868;-66
2022/11/11 10:46:35;;;;;;;8.30;7.50;;;12.50;84.10;;;12.50;70.35;99617.09;4983794;28;20467;-65
2022/11/11 10:49:09;;;;;;;8.20;7.47;;;12.50;83.90;;;12.55;70.44;99623.63;4959875;28;20476;-67
2022/11/11 10:51:44;;;;;;;12.77;7.10;;;12.40;83.90;;;12.65;70.09;99617.91;4966389;28;20454;-67
2022/11/11 10:54:16;;;;;;;7.97;6.10;;;12.50;83.70;;;12.47;70.08;99621.88;4976262;28;20466;-67
2022/11/11 10:56:49;;;;;;;8.30;6.73;;;12.50;83.50;;;12.60;69.98;99613.09;4958278;28;21011;-69
2022/11/11 10:59:22;;;;;;;6.57;5.97;;;12.50;83.50;;;12.70;69.11;99618.22;4971931;28;20446;-68
2022/11/11 11:01:56;;;;;;;9.70;6.27;;;12.50;83.20;;;12.64;68.89;99618.94;4981138;28;20486;-67
2022/11/11 11:04:31;;;;;;;6.80;6.10;;;12.50;83.30;;;12.65;69.48;99612.50;4963656;28;20789;-68
2022/11/11 11:07:01;;;;;;;6.50;5.60;;;12.50;83.40;;;12.77;68.97;99622.84;4984996;28;20982;-67
2022/11/11 11:09:35;;;;;;;5.90;5.40;;;12.60;83.30;;;12.73;69.20;99611.53;4985764;28;20523;-68
2022/11/11 11:12:12;;;;;;;7.47;6.13;;;12.60;83.40;;;12.99;68.52;99608.31;4983979;28;20464;-68
2022/11/11 11:14:45;;;;;;;5.60;5.00;;;12.80;83.20;;;13.15;67.80;99617.25;4982432;28;20453;-67
2022/11/11 11:17:19;;;;;;;6.50;5.40;;;12.90;82.70;;;12.96;68.07;99545.47;4982204;28;20506;-67
2022/11/11 11:20:08;;;;;;;6.07;5.10;;;13.10;83.00;;;13.50;66.15;99622.81;4976644;28;20863;-66
2022/11/11 11:22:51;;;;;;;5.33;4.67;;;13.20;82.10;;;13.54;66.16;99615.94;4986470;28;20498;-66
2022/11/11 11:25:21;;;;;;;5.33;4.90;;;13.40;81.60;;;13.40;66.56;99605.97;4958873;28;20471;-67
2022/11/11 11:27:51;;;;;;;5.37;4.83;;;13.40;81.60;;;13.59;65.88;99608.06;4983219;28;20926;-67
2022/11/11 11:30:22;;;;;;;5.63;4.20;;;13.50;81.40;;;13.97;63.56;99606.88;4984441;28;20466;-70
2022/11/11 11:32:59;;;;;;;7.33;4.77;;;13.70;80.50;;;13.91;64.61;99583.22;4981370;28;20458;-70
2022/11/11 11:35:40;;;;;;;5.33;4.83;;;13.80;80.70;;;14.02;64.36;99593.53;4985286;28;20457;-71
2022/11/11 11:38:10;;;;;;;5.27;3.93;;;13.90;80.70;;;14.04;64.57;99598.78;4978933;28;20472;-70
2022/11/11 11:40:55;;;;;;;5.10;4.60;;;13.90;80.60;;;13.96;64.07;99604.34;4983374;28;20536;-69
2022/11/11 11:43:34;;;;;;;6.70;5.00;;;13.80;80.30;;;14.30;63.46;99589.06;4973170;28;20495;-70